createdAt,value
2022-12-22T00:01:23.125Z,99286.28
2022-12-22T00:04:08.422Z,99291.66
2022-12-22T00:06:53.901Z,99280.53
2022-12-22T00:09:39.199Z,99277.19
2022-12-22T00:12:27.844Z,99274.13
2022-12-22T00:15:13.299Z,99273.09
2022-12-22T00:17:59.000Z,99273.22
2022-12-22T00:20:43.965Z,99273.31
2022-12-22T00:23:29.583Z,99261.75
2022-12-22T00:26:15.069Z,99258.66
2022-12-22T00:29:02.678Z,99254.94
2022-12-22T00:31:49.079Z,99255.22
2022-12-22T00:34:36.722Z,99240.94
2022-12-22T00:37:21.988Z,99238.94
2022-12-22T00:40:08.128Z,99234.81
2022-12-22T00:42:53.171Z,99222.03
2022-12-22T00:45:39.758Z,99219.56
2022-12-22T00:48:30.161Z,99219.34
2022-12-22T00:51:16.146Z,99221.25
2022-12-22T00:54:01.423Z,99215.69
2022-12-22T00:56:46.979Z,99207.22
2022-12-22T00:59:32.375Z,99204.78
2022-12-22T01:02:19.167Z,99195.91
2022-12-22T01:05:04.371Z,99199.19
2022-12-22T01:07:49.716Z,99193.88
2022-12-22T01:10:35.565Z,99189.06
2022-12-22T01:13:20.716Z,99188.03
2022-12-22T01:16:06.201Z,99186.59
2022-12-22T01:18:53.121Z,99178.78
2022-12-22T01:21:38.380Z,99180.06
2022-12-22T01:24:30.049Z,99177.16
2022-12-22T01:27:15.573Z,99176.56
2022-12-22T01:30:00.496Z,99179.84
2022-12-22T01:32:45.655Z,99177.00
2022-12-22T01:35:38.808Z,99167.28
2022-12-22T01:38:24.100Z,99174.50
2022-12-22T01:41:09.588Z,99164.22
2022-12-22T01:43:55.579Z,99159.28
2022-12-22T01:46:43.872Z,99154.16
2022-12-22T01:49:32.468Z,99156.84
2022-12-22T01:52:20.535Z,99148.72
2022-12-22T01:55:06.881Z,99147.16
2022-12-22T01:57:52.823Z,99143.00
2022-12-22T02:00:38.382Z,99139.91
2022-12-22T02:03:34.068Z,99126.34
2022-12-22T02:06:30.803Z,99127.38
2022-12-22T02:09:32.462Z,99121.56
2022-12-22T02:12:28.286Z,99114.28
2022-12-22T02:15:24.336Z,99113.72
2022-12-22T02:18:20.022Z,99106.66
2022-12-22T02:21:08.413Z,99102.94
2022-12-22T02:24:14.633Z,99107.50
2022-12-22T02:27:04.642Z,99092.84
2022-12-22T02:29:55.014Z,99078.66
2022-12-22T02:32:42.151Z,99088.50
2022-12-22T02:35:31.741Z,99068.59
2022-12-22T02:38:26.003Z,99072.09
2022-12-22T02:41:21.399Z,99059.31
2022-12-22T02:44:28.521Z,99046.06
2022-12-22T02:47:19.330Z,99040.31
2022-12-22T02:50:11.812Z,99037.28
2022-12-22T02:52:59.193Z,99038.31
2022-12-22T02:55:45.270Z,99024.25
2022-12-22T02:58:30.573Z,99034.16
2022-12-22T03:01:17.855Z,99019.72
2022-12-22T03:04:03.510Z,99003.81
2022-12-22T03:06:48.829Z,99015.59
2022-12-22T03:09:33.891Z,99008.06
2022-12-22T03:12:19.357Z,99010.00
2022-12-22T03:15:04.524Z,99003.50
2022-12-22T03:17:51.375Z,98998.72
2022-12-22T03:20:36.505Z,99001.84
2022-12-22T03:23:22.807Z,98997.47
2022-12-22T03:25:54.109Z,98996.22
2022-12-22T03:28:22.819Z,98988.78
2022-12-22T03:30:55.265Z,98985.34
2022-12-22T03:33:24.534Z,98988.84
2022-12-22T03:35:52.377Z,98982.41
2022-12-22T03:38:20.208Z,98974.13
2022-12-22T03:40:48.185Z,98969.34
2022-12-22T03:43:34.743Z,98963.41
2022-12-22T03:46:20.083Z,98964.69
2022-12-22T03:49:09.610Z,98968.19
2022-12-22T03:51:39.474Z,98958.09
2022-12-22T03:54:16.257Z,98958.63
2022-12-22T03:56:44.095Z,98958.81
2022-12-22T03:59:13.271Z,98959.91
2022-12-22T04:01:45.422Z,98954.13
2022-12-22T04:04:16.243Z,98952.47
2022-12-22T04:06:44.180Z,98950.59
2022-12-22T04:09:11.838Z,98944.59
2022-12-22T04:11:57.130Z,98943.75
2022-12-22T04:14:31.315Z,98928.84
2022-12-22T04:17:01.368Z,98934.06
2022-12-22T04:19:30.297Z,98924.19
2022-12-22T04:21:58.135Z,98924.78
2022-12-22T04:24:26.143Z,98926.81
2022-12-22T04:26:54.174Z,98926.25
2022-12-22T04:29:21.696Z,98917.19
2022-12-22T04:31:49.394Z,98923.59
2022-12-22T04:34:17.047Z,98908.31
2022-12-22T04:36:45.937Z,98910.63
2022-12-22T04:39:13.492Z,98903.69
2022-12-22T04:41:41.059Z,98902.00
2022-12-22T04:44:08.556Z,98900.97
2022-12-22T04:46:36.081Z,98911.31
2022-12-22T04:49:03.660Z,98908.53
2022-12-22T04:51:31.257Z,98913.19
2022-12-22T04:54:00.105Z,98904.63
2022-12-22T04:56:27.718Z,98900.59
2022-12-22T04:58:55.233Z,98903.50
2022-12-22T05:01:22.933Z,98904.31
2022-12-22T05:03:50.622Z,98897.53
2022-12-22T05:06:18.140Z,98896.13
2022-12-22T05:08:45.691Z,98885.63
2022-12-22T05:11:14.541Z,98886.06
2022-12-22T05:13:42.094Z,98881.91
2022-12-22T05:16:12.633Z,98879.44
2022-12-22T05:18:41.773Z,98877.81
2022-12-22T05:21:12.405Z,98865.22
2022-12-22T05:23:40.050Z,98864.88
2022-12-22T05:26:07.705Z,98857.84
2022-12-22T05:28:36.801Z,98865.88
2022-12-22T05:31:05.918Z,98862.00
2022-12-22T05:33:34.383Z,98864.44
2022-12-22T05:36:02.117Z,98859.88
2022-12-22T05:38:30.164Z,98852.78
2022-12-22T05:41:03.984Z,98859.69
2022-12-22T05:43:32.625Z,98858.50
2022-12-22T05:46:04.044Z,98850.66
2022-12-22T05:48:37.524Z,98847.06
2022-12-22T05:51:07.317Z,98844.06
2022-12-22T05:53:34.915Z,98843.47
2022-12-22T05:56:02.524Z,98836.69
2022-12-22T05:58:30.105Z,98835.75
2022-12-22T06:00:59.122Z,98823.63
2022-12-22T06:03:29.263Z,98819.91
2022-12-22T06:05:57.406Z,98822.50
2022-12-22T06:08:25.677Z,98825.03
2022-12-22T06:10:57.763Z,98817.75
2022-12-22T06:13:26.302Z,98823.78
2022-12-22T06:15:56.150Z,98830.47
2022-12-22T06:18:23.708Z,98812.28
2022-12-22T06:20:54.545Z,98817.81
2022-12-22T06:23:22.389Z,98802.91
2022-12-22T06:25:55.750Z,98809.31
2022-12-22T06:28:23.403Z,98807.31
2022-12-22T06:30:52.852Z,98807.75
2022-12-22T06:33:20.752Z,98814.69
2022-12-22T06:35:53.964Z,98802.16
2022-12-22T06:38:27.644Z,98808.81
2022-12-22T06:40:57.697Z,98800.91
2022-12-22T06:43:24.367Z,98806.19
2022-12-22T06:45:51.951Z,98807.53
2022-12-22T06:48:20.216Z,98813.03
2022-12-22T06:50:47.945Z,98816.91
2022-12-22T06:53:15.571Z,98811.69
2022-12-22T06:55:44.791Z,98814.72
2022-12-22T06:58:12.311Z,98816.81
2022-12-22T07:00:39.912Z,98821.28
2022-12-22T07:03:07.791Z,98815.69
2022-12-22T07:05:35.652Z,98822.31
2022-12-22T07:08:08.926Z,98817.03
2022-12-22T07:10:54.925Z,98817.91
2022-12-22T07:13:24.481Z,98823.75
2022-12-22T07:16:00.185Z,98833.41
2022-12-22T07:18:29.330Z,98832.72
2022-12-22T07:20:56.878Z,98840.78
2022-12-22T07:23:24.781Z,98835.19
2022-12-22T07:25:52.533Z,98842.56
2022-12-22T07:28:21.328Z,98846.19
2022-12-22T07:30:50.538Z,98863.31
2022-12-22T07:33:18.331Z,98857.50
2022-12-22T07:35:50.870Z,98856.84
2022-12-22T07:38:18.506Z,98856.63
2022-12-22T07:40:51.668Z,98859.19
2022-12-22T07:43:18.497Z,98854.88
2022-12-22T07:45:46.266Z,98847.25
2022-12-22T07:48:29.433Z,98848.69
2022-12-22T07:51:03.899Z,98844.28
2022-12-22T07:53:32.737Z,98856.19
2022-12-22T07:56:03.849Z,98841.00
2022-12-22T07:58:31.564Z,98846.59
2022-12-22T08:01:00.351Z,98841.50
2022-12-22T08:03:29.375Z,98840.47
2022-12-22T08:05:57.064Z,98841.06
2022-12-22T08:08:24.660Z,98842.09
2022-12-22T08:10:52.221Z,98843.16
2022-12-22T08:13:20.408Z,98834.22
2022-12-22T08:15:48.211Z,98839.28
2022-12-22T08:18:15.804Z,98837.16
2022-12-22T08:20:51.375Z,98839.84
2022-12-22T08:23:19.151Z,98837.97
2022-12-22T08:25:49.692Z,98834.50
2022-12-22T08:28:18.205Z,98834.09
2022-12-22T08:30:46.947Z,98831.03
2022-12-22T08:33:14.677Z,98837.84
2022-12-22T08:35:43.029Z,98834.00
2022-12-22T08:38:13.999Z,98837.50
2022-12-22T08:40:45.630Z,98838.31
2022-12-22T08:43:13.497Z,98834.41
2022-12-22T08:45:42.477Z,98843.88
2022-12-22T08:48:10.653Z,98838.56
2022-12-22T08:50:38.861Z,98841.25
2022-12-22T08:53:18.843Z,98832.94
2022-12-22T08:55:57.568Z,98832.16
2022-12-22T08:58:25.137Z,98837.59
2022-12-22T09:00:52.725Z,98843.78
2022-12-22T09:03:20.559Z,98845.78
2022-12-22T09:05:48.157Z,98852.75
2022-12-22T09:08:15.812Z,98856.09
2022-12-22T09:10:44.367Z,98864.38
2022-12-22T09:13:13.296Z,98849.03
2022-12-22T09:15:40.853Z,98856.00
2022-12-22T09:18:08.462Z,98858.13
2022-12-22T09:20:35.971Z,98864.53
2022-12-22T09:23:03.656Z,98869.13
2022-12-22T09:25:31.218Z,98872.41
2022-12-22T09:27:59.090Z,98890.03
2022-12-22T09:30:28.072Z,98887.88
2022-12-22T09:32:55.724Z,98902.56
2022-12-22T09:35:23.338Z,98905.38
2022-12-22T09:37:50.901Z,98908.53
2022-12-22T09:40:21.473Z,98908.59
2022-12-22T09:42:49.220Z,98899.50
2022-12-22T09:45:20.152Z,98911.53
2022-12-22T09:47:53.646Z,98905.69
2022-12-22T09:50:23.951Z,98908.03
2022-12-22T09:52:54.904Z,98906.06
2022-12-22T09:55:35.612Z,98905.38
2022-12-22T09:58:04.596Z,98915.19
2022-12-22T10:00:36.787Z,98918.56
2022-12-22T10:03:16.851Z,98914.91
2022-12-22T10:05:51.379Z,98919.03
2022-12-22T10:08:28.308Z,98920.44
2022-12-22T10:10:56.826Z,98927.22
2022-12-22T10:13:24.434Z,98933.78
2022-12-22T10:15:53.263Z,98938.34
2022-12-22T10:18:24.882Z,98939.63
2022-12-22T10:21:10.530Z,98935.44
2022-12-22T10:23:40.942Z,98951.28
2022-12-22T10:26:30.716Z,98955.25
2022-12-22T10:29:02.068Z,98952.03
2022-12-22T10:31:31.626Z,98944.03
2022-12-22T10:34:12.625Z,98949.31
2022-12-22T10:36:41.006Z,98948.34
2022-12-22T10:39:10.158Z,98961.75
2022-12-22T10:41:42.808Z,98965.41
2022-12-22T10:44:19.662Z,98964.50
2022-12-22T10:46:50.198Z,98975.53
2022-12-22T10:49:22.658Z,98977.47
2022-12-22T10:51:53.508Z,98975.38
2022-12-22T10:54:36.026Z,98987.06
2022-12-22T10:57:07.183Z,98985.56
2022-12-22T10:59:50.128Z,98994.03
2022-12-22T11:02:30.466Z,99000.63
2022-12-22T11:05:08.642Z,99000.31
2022-12-22T11:07:38.633Z,99003.56
2022-12-22T11:10:19.348Z,99015.84
2022-12-22T11:13:02.220Z,99017.94
2022-12-22T11:15:36.787Z,99029.13
2022-12-22T11:18:18.925Z,99030.78
2022-12-22T11:20:56.186Z,99040.47
2022-12-22T11:23:33.213Z,99041.78
2022-12-22T11:26:10.256Z,99050.88
2022-12-22T11:28:57.985Z,99055.84
2022-12-22T11:31:44.413Z,99067.75
2022-12-22T11:34:28.148Z,99058.53
2022-12-22T11:37:12.339Z,99066.38
2022-12-22T11:39:46.741Z,99057.25
2022-12-22T11:42:30.414Z,99063.22
2022-12-22T11:45:09.166Z,99077.81
2022-12-22T11:47:45.301Z,99082.19
2022-12-22T11:50:59.426Z,99090.66
2022-12-22T11:54:04.079Z,99093.81
2022-12-22T11:56:38.007Z,99104.03
2022-12-22T11:59:24.300Z,99100.06
2022-12-22T12:02:14.231Z,99103.81
2022-12-22T12:05:23.440Z,99108.94
2022-12-22T12:07:55.695Z,99117.41
2022-12-22T12:10:40.480Z,99117.94
2022-12-22T12:13:27.387Z,99122.53
2022-12-22T12:16:08.808Z,99129.09
2022-12-22T12:18:53.191Z,99131.06
2022-12-22T12:21:27.805Z,99139.13
2022-12-22T12:24:12.803Z,99139.06
2022-12-22T12:26:50.492Z,99151.44
2022-12-22T12:29:21.026Z,99159.06
2022-12-22T12:31:55.051Z,99156.75
2022-12-22T12:34:23.956Z,99155.19
2022-12-22T12:36:58.847Z,99164.56
2022-12-22T12:39:32.438Z,99180.94
2022-12-22T12:42:10.576Z,99179.50
2022-12-22T12:44:39.445Z,99180.91
2022-12-22T12:47:22.216Z,99194.19
2022-12-22T12:50:00.718Z,99183.31
2022-12-22T12:53:14.492Z,99186.13
2022-12-22T12:56:05.564Z,99199.66
2022-12-22T12:58:54.340Z,99197.06
2022-12-22T13:01:57.433Z,99197.88
2022-12-22T13:05:14.288Z,99202.38
2022-12-22T13:08:17.930Z,99216.97
2022-12-22T13:12:01.232Z,99227.00
2022-12-22T13:14:51.679Z,99231.47
2022-12-22T13:17:34.066Z,99239.41
2022-12-22T13:20:01.783Z,99241.16
2022-12-22T13:22:30.098Z,99250.38
2022-12-22T13:25:03.338Z,99256.56
2022-12-22T13:27:32.003Z,99253.88
2022-12-22T13:30:00.937Z,99266.19
2022-12-22T13:32:34.548Z,99270.88
2022-12-22T13:38:00.775Z,99275.69
2022-12-22T13:40:30.781Z,99276.50
2022-12-22T13:43:03.606Z,99280.00
2022-12-22T13:45:37.046Z,99281.47
2022-12-22T13:48:10.561Z,99292.16
2022-12-22T13:50:43.642Z,99294.50
2022-12-22T13:53:34.344Z,99296.03
2022-12-22T13:56:06.756Z,99291.94
2022-12-22T13:58:39.752Z,99295.22
2022-12-22T14:01:18.489Z,99301.66
2022-12-22T14:04:04.574Z,99301.28
2022-12-22T14:06:34.712Z,99305.00
2022-12-22T14:09:17.498Z,99295.00
2022-12-22T14:11:51.957Z,99295.03
2022-12-22T14:14:23.837Z,99299.59
2022-12-22T14:16:56.302Z,99304.84
2022-12-22T14:19:25.315Z,99310.03
2022-12-22T14:22:02.997Z,99312.53
2022-12-22T14:24:38.268Z,99315.13
2022-12-22T14:27:07.667Z,99314.75
2022-12-22T14:29:35.309Z,99320.84
2022-12-22T14:32:04.780Z,99322.63
2022-12-22T14:34:34.043Z,99313.50
2022-12-22T14:37:02.909Z,99313.88
2022-12-22T14:39:32.530Z,99315.56
2022-12-22T14:42:02.530Z,99308.88
2022-12-22T14:44:32.822Z,99314.34
2022-12-22T14:47:15.959Z,99317.00
2022-12-22T14:49:50.141Z,99321.31
2022-12-22T14:52:25.439Z,99323.50
2022-12-22T14:54:55.351Z,99321.63
2022-12-22T14:57:31.375Z,99327.25
2022-12-22T15:00:02.671Z,99326.91
2022-12-22T15:02:39.084Z,99329.19
2022-12-22T15:05:16.973Z,99331.44
2022-12-22T15:08:05.555Z,99332.06
2022-12-22T15:10:42.165Z,99337.69
2022-12-22T15:13:17.214Z,99337.94
2022-12-22T15:15:44.853Z,99346.19
2022-12-22T15:18:17.276Z,99336.91
2022-12-22T15:20:44.800Z,99346.44
2022-12-22T15:23:16.805Z,99336.13
2022-12-22T15:25:44.667Z,99348.69
2022-12-22T15:28:12.402Z,99340.47
2022-12-22T15:30:40.238Z,99343.75
2022-12-22T15:33:14.940Z,99350.97
2022-12-22T15:35:43.441Z,99360.00
2022-12-22T15:38:14.512Z,99361.25
2022-12-22T15:40:42.358Z,99361.91
2022-12-22T15:43:28.742Z,99361.91
2022-12-22T15:45:58.395Z,99360.88
2022-12-22T15:48:31.409Z,99355.97
2022-12-22T15:50:59.917Z,99358.84
2022-12-22T15:53:27.625Z,99360.50
2022-12-22T15:55:58.325Z,99371.00
2022-12-22T15:58:28.964Z,99362.97
2022-12-22T16:00:56.642Z,99367.09
2022-12-22T16:03:24.483Z,99370.00
2022-12-22T16:05:54.562Z,99360.28
2022-12-22T16:08:31.446Z,99360.72
2022-12-22T16:10:59.413Z,99357.22
2022-12-22T16:13:31.465Z,99347.34
2022-12-22T16:15:59.776Z,99354.38
2022-12-22T16:18:27.472Z,99357.06
2022-12-22T16:20:58.550Z,99347.53
2022-12-22T16:23:27.956Z,99356.41
2022-12-22T16:26:01.995Z,99351.66
2022-12-22T16:28:30.027Z,99359.31
2022-12-22T16:30:58.100Z,99351.88
2022-12-22T16:33:25.708Z,99349.00
2022-12-22T16:35:53.343Z,99342.19
2022-12-22T16:38:24.623Z,99347.53
2022-12-22T16:40:54.186Z,99346.09
2022-12-22T16:46:17.611Z,99338.88
2022-12-22T16:48:47.712Z,99339.91
2022-12-22T16:51:22.613Z,99350.81
2022-12-22T16:53:51.651Z,99336.44
2022-12-22T16:56:22.285Z,99341.94
2022-12-22T16:58:50.589Z,99336.41
2022-12-22T17:01:23.581Z,99339.09
2022-12-22T17:03:51.382Z,99333.50
2022-12-22T17:06:19.135Z,99335.81
2022-12-22T17:08:47.330Z,99338.09
2022-12-22T17:11:22.337Z,99327.38
2022-12-22T17:13:51.294Z,99325.34
2022-12-22T17:16:20.986Z,99328.44
2022-12-22T17:18:51.457Z,99325.75
2022-12-22T17:21:20.453Z,99311.31
2022-12-22T17:23:51.665Z,99310.69
2022-12-22T17:26:23.656Z,99308.41
2022-12-22T17:28:51.959Z,99299.81
2022-12-22T17:31:21.683Z,99306.16
2022-12-22T17:33:49.621Z,99297.31
2022-12-22T17:36:28.616Z,99287.25
2022-12-22T17:38:57.952Z,99288.06
2022-12-22T17:41:26.982Z,99284.38
2022-12-22T17:43:54.640Z,99279.03
2022-12-22T17:46:23.048Z,99278.63
2022-12-22T17:48:51.398Z,99279.44
2022-12-22T17:51:22.081Z,99274.28
2022-12-22T17:53:49.925Z,99278.81
2022-12-22T17:56:19.809Z,99262.75
2022-12-22T17:58:49.025Z,99260.47
2022-12-22T18:01:27.462Z,99261.50
2022-12-22T18:03:56.175Z,99257.59
2022-12-22T18:06:27.796Z,99247.06
2022-12-22T18:08:57.058Z,99246.47
2022-12-22T18:11:25.269Z,99238.28
2022-12-22T18:13:54.703Z,99243.63
2022-12-22T18:16:23.033Z,99244.00
2022-12-22T18:18:50.774Z,99232.69
2022-12-22T18:21:20.732Z,99231.06
2022-12-22T18:23:50.588Z,99226.91
2022-12-22T18:26:23.019Z,99222.16
2022-12-22T18:28:52.707Z,99221.34
2022-12-22T18:31:22.876Z,99224.25
2022-12-22T18:33:50.614Z,99215.16
2022-12-22T18:36:19.901Z,99220.94
2022-12-22T18:38:48.948Z,99206.09
2022-12-22T18:41:21.455Z,99213.53
2022-12-22T18:43:49.244Z,99201.16
2022-12-22T18:46:16.954Z,99208.16
2022-12-22T18:48:46.153Z,99197.03
2022-12-22T18:51:20.059Z,99188.63
2022-12-22T18:53:48.935Z,99187.19
2022-12-22T18:56:16.610Z,99180.81
2022-12-22T18:58:45.908Z,99184.47
2022-12-22T19:01:19.961Z,99178.50
2022-12-22T19:03:55.254Z,99176.81
2022-12-22T19:06:24.063Z,99180.66
2022-12-22T19:08:52.154Z,99179.22
2022-12-22T19:11:24.749Z,99178.81
2022-12-22T19:13:53.399Z,99174.69
2022-12-22T19:16:25.885Z,99162.75
2022-12-22T19:18:57.094Z,99169.09
2022-12-22T19:21:24.706Z,99156.31
2022-12-22T19:23:52.424Z,99155.75
2022-12-22T19:26:22.847Z,99154.31
2022-12-22T19:28:53.663Z,99149.53
2022-12-22T19:31:24.086Z,99149.72
2022-12-22T19:33:52.912Z,99148.69
2022-12-22T19:36:26.183Z,99144.00
2022-12-22T19:39:02.631Z,99143.81
2022-12-22T19:41:38.079Z,99129.75
2022-12-22T19:44:06.699Z,99128.34
2022-12-22T19:46:35.633Z,99132.88
2022-12-22T19:49:03.430Z,99118.22
2022-12-22T19:51:32.427Z,99112.03
2022-12-22T19:54:02.654Z,99114.28
2022-12-22T19:56:30.936Z,99108.56
2022-12-22T19:59:00.843Z,99100.41
2022-12-22T20:01:28.573Z,99099.97
2022-12-22T20:03:56.875Z,99105.78
2022-12-22T20:06:24.801Z,99105.66
2022-12-22T20:08:54.180Z,99098.69
2022-12-22T20:11:21.791Z,99100.78
2022-12-22T20:13:49.545Z,99099.81
2022-12-22T20:16:17.970Z,99091.72
2022-12-22T20:18:46.505Z,99091.28
2022-12-22T20:21:17.570Z,99095.66
2022-12-22T20:23:45.760Z,99082.41
2022-12-22T20:26:19.560Z,99082.91
2022-12-22T20:28:48.802Z,99072.50
2022-12-22T20:31:18.436Z,99068.72
2022-12-22T20:33:46.528Z,99068.66
2022-12-22T20:36:21.369Z,99071.31
2022-12-22T20:38:53.141Z,99063.13
2022-12-22T20:41:22.300Z,99068.28
2022-12-22T20:43:50.366Z,99064.47
2022-12-22T20:46:20.482Z,99058.78
2022-12-22T20:48:50.517Z,99071.63
2022-12-22T20:51:22.640Z,99056.38
2022-12-22T20:53:52.438Z,99054.28
2022-12-22T20:56:26.643Z,99050.00
2022-12-22T20:58:54.653Z,99039.50
2022-12-22T21:01:23.630Z,99042.88
2022-12-22T21:03:51.538Z,99034.00
2022-12-22T21:06:27.088Z,99041.81
2022-12-22T21:08:56.531Z,99026.31
2022-12-22T21:11:26.422Z,99036.59
2022-12-22T21:13:54.851Z,99026.94
2022-12-22T21:16:25.469Z,99017.84
2022-12-22T21:18:53.665Z,99026.16
2022-12-22T21:21:21.810Z,99023.47
2022-12-22T21:23:49.446Z,99024.09
2022-12-22T21:26:25.039Z,99028.47
2022-12-22T21:28:54.415Z,99021.03
2022-12-22T21:31:22.242Z,99022.94
2022-12-22T21:33:50.354Z,99021.69
2022-12-22T21:36:23.378Z,99017.81
2022-12-22T21:38:54.841Z,99004.00
2022-12-22T21:41:45.921Z,99006.81
2022-12-22T21:44:15.042Z,99006.59
2022-12-22T21:46:44.836Z,99002.13
2022-12-22T21:49:19.816Z,99000.81
2022-12-22T21:51:47.706Z,98995.03
2022-12-22T21:54:15.399Z,99001.94
2022-12-22T21:56:42.996Z,98990.19
2022-12-22T21:59:10.515Z,98995.59
2022-12-22T22:01:41.903Z,98995.16
2022-12-22T22:04:10.046Z,98996.72
2022-12-22T22:06:37.859Z,99000.81
2022-12-22T22:09:06.988Z,99004.88
2022-12-22T22:11:54.807Z,99007.03
2022-12-22T22:14:22.560Z,99014.19
2022-12-22T22:16:52.169Z,99014.25
2022-12-22T22:19:20.038Z,99015.25
2022-12-22T22:21:48.649Z,99005.44
2022-12-22T22:24:16.384Z,99004.94
2022-12-22T22:26:45.499Z,98993.78
2022-12-22T22:29:13.228Z,98983.75
2022-12-22T22:31:41.437Z,98968.19
2022-12-22T22:34:10.637Z,98978.44
2022-12-22T22:36:38.215Z,98961.91
2022-12-22T22:39:06.190Z,98969.97
2022-12-22T22:41:39.205Z,98973.31
2022-12-22T22:44:08.728Z,98958.34
2022-12-22T22:46:36.391Z,98957.81
2022-12-22T22:49:04.037Z,98961.78
2022-12-22T22:51:33.574Z,98960.53
2022-12-22T22:54:01.326Z,98960.16
2022-12-22T22:56:29.195Z,98962.50
2022-12-22T22:58:56.813Z,98962.75
2022-12-22T23:01:24.394Z,98960.47
2022-12-22T23:03:52.055Z,98952.00
2022-12-22T23:06:20.553Z,98960.41
2022-12-22T23:08:50.466Z,98962.09
2022-12-22T23:11:18.240Z,98959.38
2022-12-22T23:13:46.267Z,98956.69
2022-12-22T23:16:14.034Z,98952.84
2022-12-22T23:18:42.328Z,98954.97
2022-12-22T23:21:10.064Z,98955.84
2022-12-22T23:23:38.257Z,98949.69
2022-12-22T23:26:07.664Z,98950.97
2022-12-22T23:28:35.442Z,98953.66
2022-12-22T23:31:03.067Z,98952.16
2022-12-22T23:33:32.012Z,98944.28
2022-12-22T23:35:59.672Z,98951.50
2022-12-22T23:38:27.258Z,98945.94
2022-12-22T23:41:02.569Z,98933.88
2022-12-22T23:43:31.855Z,98947.28
2022-12-22T23:46:00.003Z,98941.41
2022-12-22T23:48:28.563Z,98940.72
2022-12-22T23:50:56.089Z,98932.09
2022-12-22T23:53:23.644Z,98946.31
2022-12-22T23:55:51.379Z,98941.75
2022-12-22T23:58:19.056Z,98940.03
